Time;durP1;ratioP1;P1;durP2;ratioP2;P2;SDS_P1;SDS_P2;PMS_P1;PMS_P2;Temp;Humidity;BMP_temperature;BMP_pressure;BME280_temperature;BME280_humidity;BME280_pressure;Samples;Min_cycle;Max_cycle;Signal;HPM_P1;HPM_P2
2023/10/31 00:00:17;;;;;;;18.40;7.85;;;;;;;;;;5012453;28;20369;-78
2023/10/31 00:02:43;;;;;;;12.38;8.60;;;;;;;;;;5029097;28;20040;-77
2023/10/31 00:05:08;;;;;;;15.27;8.55;;;;;;;;;;5029006;28;20669;-78
2023/10/31 00:07:34;;;;;;;15.70;9.70;;;;;;;;;;5012809;28;20056;-77
2023/10/31 00:10:01;;;;;;;14.52;7.65;;;;;;;;;;5031106;28;20528;-77
2023/10/31 00:12:26;;;;;;;14.98;7.50;;;;;;;;;;5029953;28;20538;-78
2023/10/31 00:14:52;;;;;;;17.45;9.55;;;;;;;;;;5031260;28;20120;-79
2023/10/31 00:17:17;;;;;;;17.58;9.25;;;;;;;;;;5033746;28;20029;-79
2023/10/31 00:19:44;;;;;;;16.40;10.88;;;;;;;;;;5050563;28;20081;-76
2023/10/31 00:22:10;;;;;;;18.85;10.23;;;;;;;;;;5034810;28;20470;-78
2023/10/31 00:24:35;;;;;;;16.42;10.27;;;;;;;;;;5026793;28;20109;-77
2023/10/31 00:27:01;;;;;;;23.80;11.57;;;;;;;;;;5014580;28;20034;-77
2023/10/31 00:29:26;;;;;;;20.13;9.73;;;;;;;;;;5014425;28;20018;-77
2023/10/31 00:31:52;;;;;;;15.40;10.02;;;;;;;;;;5014306;28;20036;-78
2023/10/31 00:34:17;;;;;;;15.70;9.63;;;;;;;;;;5029835;28;20033;-78
2023/10/31 00:36:43;;;;;;;18.67;10.07;;;;;;;;;;5008943;28;20045;-77
2023/10/31 00:39:08;;;;;;;14.55;8.02;;;;;;;;;;5014157;28;20034;-77
2023/10/31 00:41:34;;;;;;;16.08;8.45;;;;;;;;;;5014412;28;20022;-77
2023/10/31 00:43:59;;;;;;;17.10;8.38;;;;;;;;;;4996322;28;20313;-77
2023/10/31 00:46:25;;;;;;;13.75;8.13;;;;;;;;;;4996264;28;20026;-76
2023/10/31 00:48:50;;;;;;;14.90;8.18;;;;;;;;;;5021896;28;20072;-78
2023/10/31 00:51:16;;;;;;;14.60;7.70;;;;;;;;;;5033931;28;20542;-79
2023/10/31 00:53:41;;;;;;;12.40;7.93;;;;;;;;;;5032594;28;20018;-77
2023/10/31 00:56:07;;;;;;;11.07;7.38;;;;;;;;;;5034134;28;20048;-76
2023/10/31 00:58:34;;;;;;;21.48;7.50;;;;;;;;;;5016067;28;20067;-77
2023/10/31 01:01:00;;;;;;;12.82;6.93;;;;;;;;;;5033470;28;20112;-76
2023/10/31 01:03:26;;;;;;;10.40;6.65;;;;;;;;;;5013198;28;20839;-78
2023/10/31 01:05:53;;;;;;;9.93;6.22;;;;;;;;;;5029637;28;20026;-78
2023/10/31 01:08:19;;;;;;;14.88;9.40;;;;;;;;;;5013512;28;20064;-76
2023/10/31 01:10:45;;;;;;;11.75;6.97;;;;;;;;;;5014699;28;20061;-77
2023/10/31 01:13:11;;;;;;;11.45;6.82;;;;;;;;;;5017967;28;20013;-78
2023/10/31 01:15:36;;;;;;;12.68;6.97;;;;;;;;;;5035911;28;20036;-77
2023/10/31 01:18:03;;;;;;;8.63;5.95;;;;;;;;;;5035843;28;20382;-78
2023/10/31 01:20:29;;;;;;;12.68;6.43;;;;;;;;;;5035530;28;20542;-77
2023/10/31 01:22:55;;;;;;;11.70;6.20;;;;;;;;;;5018788;28;20112;-79
2023/10/31 01:25:20;;;;;;;10.77;6.03;;;;;;;;;;5036369;28;20029;-77
2023/10/31 01:27:46;;;;;;;12.80;6.20;;;;;;;;;;5035622;28;20104;-77
2023/10/31 01:30:13;;;;;;;8.80;5.63;;;;;;;;;;5040660;28;20029;-76
2023/10/31 01:32:40;;;;;;;10.00;5.60;;;;;;;;;;5028983;28;20026;-77
2023/10/31 01:35:06;;;;;;;10.57;5.97;;;;;;;;;;5051257;28;20064;-77
2023/10/31 01:37:31;;;;;;;10.07;5.90;;;;;;;;;;5030109;28;20033;-77
2023/10/31 01:39:57;;;;;;;11.88;6.07;;;;;;;;;;5021522;28;20538;-77
2023/10/31 01:42:22;;;;;;;11.32;5.57;;;;;;;;;;5015949;28;20025;-78
2023/10/31 01:44:48;;;;;;;9.90;5.90;;;;;;;;;;5013404;28;20057;-79
2023/10/31 01:47:13;;;;;;;10.02;6.47;;;;;;;;;;5029328;28;20026;-77
2023/10/31 01:49:40;;;;;;;9.63;6.47;;;;;;;;;;5031432;28;20060;-76
2023/10/31 01:52:06;;;;;;;10.65;6.43;;;;;;;;;;5031810;28;20086;-77
2023/10/31 01:54:36;;;;;;;11.27;5.82;;;;;;;;;;5014942;28;20469;-77
2023/10/31 01:57:02;;;;;;;8.52;5.32;;;;;;;;;;5034095;28;20075;-78
2023/10/31 01:59:28;;;;;;;8.65;5.78;;;;;;;;;;5034181;28;20053;-79
2023/10/31 02:01:56;;;;;;;11.82;6.80;;;;;;;;;;5018543;28;20068;-78
2023/10/31 02:04:21;;;;;;;12.63;5.63;;;;;;;;;;5016872;28;20026;-78
2023/10/31 02:06:47;;;;;;;7.85;5.53;;;;;;;;;;5017009;28;20540;-76
2023/10/31 02:09:12;;;;;;;9.45;5.95;;;;;;;;;;5011868;28;20537;-77
2023/10/31 02:11:38;;;;;;;8.07;5.93;;;;;;;;;;5028225;28;20129;-78
2023/10/31 02:14:03;;;;;;;11.38;6.65;;;;;;;;;;5030628;28;20038;-78
2023/10/31 02:16:30;;;;;;;13.52;7.68;;;;;;;;;;5032485;28;20105;-77
2023/10/31 02:18:56;;;;;;;10.65;7.20;;;;;;;;;;5016303;28;20429;-77
2023/10/31 02:21:22;;;;;;;13.55;7.20;;;;;;;;;;5010876;28;20033;-77
2023/10/31 02:24:02;;;;;;;11.48;5.75;;;;;;;;;;5017947;28;20025;-76
2023/10/31 02:26:34;;;;;;;10.65;6.75;;;;;;;;;;5016129;28;20032;-78
2023/10/31 02:29:01;;;;;;;17.50;6.93;;;;;;;;;;5016061;28;20463;-78
2023/10/31 02:31:27;;;;;;;12.18;6.40;;;;;;;;;;5016094;28;20093;-76
2023/10/31 02:33:52;;;;;;;8.75;6.05;;;;;;;;;;5011876;28;20172;-78
2023/10/31 02:36:18;;;;;;;10.30;6.38;;;;;;;;;;5010376;28;20092;-78
2023/10/31 02:38:47;;;;;;;8.63;6.32;;;;;;;;;;5010589;28;20466;-77
2023/10/31 02:41:13;;;;;;;13.10;6.88;;;;;;;;;;5010321;28;20386;-75
2023/10/31 02:43:40;;;;;;;14.07;7.45;;;;;;;;;;5013457;28;20018;-76
2023/10/31 02:46:06;;;;;;;10.80;6.90;;;;;;;;;;5030796;28;20033;-77
2023/10/31 02:48:38;;;;;;;9.88;7.35;;;;;;;;;;5031690;28;20036;-77
2023/10/31 02:51:08;;;;;;;13.23;7.93;;;;;;;;;;5013890;28;20037;-78
2023/10/31 02:53:36;;;;;;;12.30;8.05;;;;;;;;;;5029342;28;20041;-77
2023/10/31 02:56:01;;;;;;;10.88;7.45;;;;;;;;;;5010098;28;20018;-77
2023/10/31 02:58:27;;;;;;;15.77;8.65;;;;;;;;;;5011709;28;20435;-77
2023/10/31 03:00:52;;;;;;;9.65;6.80;;;;;;;;;;5010667;28;20034;-77
2023/10/31 03:03:18;;;;;;;10.73;6.82;;;;;;;;;;5011641;28;20025;-77
2023/10/31 03:05:43;;;;;;;14.32;8.18;;;;;;;;;;5010870;28;20021;-76
2023/10/31 03:08:10;;;;;;;11.02;6.47;;;;;;;;;;5031154;28;20045;-77
2023/10/31 03:10:37;;;;;;;11.98;7.07;;;;;;;;;;5031038;28;20378;-77
2023/10/31 03:13:03;;;;;;;11.70;7.20;;;;;;;;;;5013298;28;20029;-76
2023/10/31 03:15:28;;;;;;;14.70;7.05;;;;;;;;;;5012931;28;20029;-76
2023/10/31 03:17:54;;;;;;;11.68;6.55;;;;;;;;;;5028013;28;20108;-76
2023/10/31 03:20:19;;;;;;;11.95;6.70;;;;;;;;;;5025378;28;20103;-76
2023/10/31 03:22:45;;;;;;;11.25;6.28;;;;;;;;;;5029724;28;20187;-76
2023/10/31 03:25:12;;;;;;;14.15;7.50;;;;;;;;;;5031509;28;20018;-77
2023/10/31 03:27:37;;;;;;;8.98;6.25;;;;;;;;;;5030736;28;20111;-77
2023/10/31 03:30:04;;;;;;;10.20;6.93;;;;;;;;;;5012964;28;20123;-76
2023/10/31 03:32:29;;;;;;;10.88;6.53;;;;;;;;;;5029349;28;20037;-76
2023/10/31 03:34:55;;;;;;;11.90;7.45;;;;;;;;;;5030558;28;20033;-76
2023/10/31 03:37:23;;;;;;;11.43;7.68;;;;;;;;;;5012943;28;20439;-77
2023/10/31 03:39:48;;;;;;;12.38;7.45;;;;;;;;;;5029137;28;20029;-75
2023/10/31 03:42:14;;;;;;;10.95;7.20;;;;;;;;;;5030516;28;20099;-76
2023/10/31 03:44:39;;;;;;;11.38;7.43;;;;;;;;;;5029077;28;20500;-75
2023/10/31 03:47:05;;;;;;;11.85;6.57;;;;;;;;;;5030937;28;20029;-75
2023/10/31 03:49:30;;;;;;;12.65;7.47;;;;;;;;;;5029208;28;20056;-78
2023/10/31 03:51:56;;;;;;;10.90;7.45;;;;;;;;;;5012561;28;20022;-76
2023/10/31 03:54:22;;;;;;;8.45;6.47;;;;;;;;;;5030340;28;20492;-76
2023/10/31 03:56:48;;;;;;;11.38;6.78;;;;;;;;;;5028935;28;20033;-76
2023/10/31 03:59:14;;;;;;;9.95;6.78;;;;;;;;;;5030431;28;20069;-77
2023/10/31 04:01:40;;;;;;;9.05;6.32;;;;;;;;;;5030032;28;20045;-77
2023/10/31 04:04:06;;;;;;;9.02;5.97;;;;;;;;;;5028991;28;20036;-77
2023/10/31 04:06:31;;;;;;;8.75;6.43;;;;;;;;;;5030125;28;20030;-77
2023/10/31 04:08:57;;;;;;;11.18;6.13;;;;;;;;;;5028954;28;20442;-78
2023/10/31 04:11:23;;;;;;;10.07;6.47;;;;;;;;;;5012767;28;20116;-76
2023/10/31 04:13:49;;;;;;;8.13;5.75;;;;;;;;;;5031043;28;20044;-77
2023/10/31 04:16:16;;;;;;;11.63;6.38;;;;;;;;;;5031094;28;20386;-76
2023/10/31 04:18:41;;;;;;;8.32;5.45;;;;;;;;;;5012285;28;20083;-76
2023/10/31 04:21:06;;;;;;;7.93;5.55;;;;;;;;;;5031350;28;20562;-76
2023/10/31 04:23:32;;;;;;;8.98;4.60;;;;;;;;;;5031297;28;20025;-76
2023/10/31 04:25:58;;;;;;;6.38;4.68;;;;;;;;;;5031648;28;20125;-76
2023/10/31 04:28:23;;;;;;;5.65;4.70;;;;;;;;;;5029818;28;20091;-75
2023/10/31 04:30:49;;;;;;;8.77;4.60;;;;;;;;;;5009026;28;20124;-76
2023/10/31 04:33:14;;;;;;;4.88;3.78;;;;;;;;;;5010348;28;20041;-77
2023/10/31 04:35:40;;;;;;;4.55;3.80;;;;;;;;;;5010953;28;20034;-76
2023/10/31 04:38:08;;;;;;;5.93;3.47;;;;;;;;;;5010616;28;20458;-77
2023/10/31 04:40:34;;;;;;;7.63;3.38;;;;;;;;;;5008486;28;20080;-76
2023/10/31 04:42:59;;;;;;;5.00;2.97;;;;;;;;;;5013406;28;20021;-76
2023/10/31 04:45:25;;;;;;;3.03;2.72;;;;;;;;;;5029805;28;20473;-77
2023/10/31 04:47:50;;;;;;;4.00;2.42;;;;;;;;;;5029006;28;20435;-78
2023/10/31 04:50:16;;;;;;;4.55;3.13;;;;;;;;;;5030111;28;20034;-78
2023/10/31 04:52:42;;;;;;;4.57;2.85;;;;;;;;;;5029513;28;20060;-78
2023/10/31 04:55:08;;;;;;;4.13;3.00;;;;;;;;;;5029976;28;20034;-79
2023/10/31 04:57:33;;;;;;;4.88;3.03;;;;;;;;;;5028461;28;20041;-80
2023/10/31 04:59:59;;;;;;;4.03;3.38;;;;;;;;;;5012991;28;20025;-80
2023/10/31 05:02:24;;;;;;;3.55;2.60;;;;;;;;;;5012095;28;20064;-78
2023/10/31 05:04:50;;;;;;;3.50;2.42;;;;;;;;;;5012169;28;20170;-79
2023/10/31 05:07:18;;;;;;;2.67;2.15;;;;;;;;;;5026253;28;20441;-78
2023/10/31 05:09:44;;;;;;;3.45;2.63;;;;;;;;;;5012260;28;20025;-79
2023/10/31 05:12:10;;;;;;;4.03;2.10;;;;;;;;;;5028457;28;20782;-79
2023/10/31 05:14:35;;;;;;;5.53;2.33;;;;;;;;;;5013120;28;20033;-79
2023/10/31 05:17:01;;;;;;;3.88;2.55;;;;;;;;;;5026851;28;20041;-79
2023/10/31 05:19:26;;;;;;;4.68;2.35;;;;;;;;;;5032413;28;20041;-79
2023/10/31 05:21:52;;;;;;;5.13;2.30;;;;;;;;;;5016434;28;20036;-79
2023/10/31 05:24:18;;;;;;;3.25;2.33;;;;;;;;;;5033159;28;20033;-80
2023/10/31 05:26:43;;;;;;;4.45;2.38;;;;;;;;;;5015335;28;20040;-79
2023/10/31 05:29:09;;;;;;;2.55;1.80;;;;;;;;;;5029463;28;20678;-78
2023/10/31 05:31:35;;;;;;;1.95;1.73;;;;;;;;;;5005103;28;20033;-78
2023/10/31 05:34:01;;;;;;;2.22;1.98;;;;;;;;;;5025739;28;20029;-77
2023/10/31 05:36:27;;;;;;;2.30;1.80;;;;;;;;;;4989205;28;20583;-75
2023/10/31 05:38:53;;;;;;;3.20;1.92;;;;;;;;;;5013085;28;20037;-76
2023/10/31 05:41:19;;;;;;;2.67;1.90;;;;;;;;;;5025296;28;20110;-75
2023/10/31 05:43:46;;;;;;;1.73;1.63;;;;;;;;;;5006568;28;20520;-75
2023/10/31 05:46:14;;;;;;;2.28;1.67;;;;;;;;;;5009892;28;20065;-75
2023/10/31 05:48:43;;;;;;;2.33;1.70;;;;;;;;;;5013747;28;20116;-76
2023/10/31 05:51:29;;;;;;;4.00;1.75;;;;;;;;;;5016983;28;20060;-76
2023/10/31 05:53:54;;;;;;;2.70;2.40;;;;;;;;;;4994310;28;20117;-75
2023/10/31 05:56:30;;;;;;;2.40;1.60;;;;;;;;;;5016423;28;20113;-76
2023/10/31 05:58:56;;;;;;;3.17;1.42;;;;;;;;;;4994395;28;20033;-76
2023/10/31 06:01:21;;;;;;;2.63;1.23;;;;;;;;;;5010732;28;20038;-73
2023/10/31 06:03:47;;;;;;;1.38;1.10;;;;;;;;;;5008932;28;20037;-74
2023/10/31 06:06:13;;;;;;;1.38;1.20;;;;;;;;;;4994661;28;20043;-73
2023/10/31 06:08:39;;;;;;;1.08;0.98;;;;;;;;;;5020718;28;20148;-74
2023/10/31 06:11:12;;;;;;;3.35;1.30;;;;;;;;;;5010993;28;20038;-73
2023/10/31 06:13:37;;;;;;;0.60;0.60;;;;;;;;;;5029827;28;20029;-74
2023/10/31 06:16:03;;;;;;;2.22;1.27;;;;;;;;;;5014980;28;20386;-74
2023/10/31 06:18:28;;;;;;;1.33;1.00;;;;;;;;;;5031798;28;20366;-72
2023/10/31 06:20:54;;;;;;;1.67;1.00;;;;;;;;;;4982368;28;20100;-75
2023/10/31 06:23:19;;;;;;;2.38;2.10;;;;;;;;;;5005894;28;20595;-73
2023/10/31 06:25:46;;;;;;;1.60;1.50;;;;;;;;;;5009034;28;20034;-76
2023/10/31 06:28:13;;;;;;;2.15;1.02;;;;;;;;;;5012556;28;20498;-75
2023/10/31 06:30:38;;;;;;;3.65;1.50;;;;;;;;;;4994499;28;20528;-74
2023/10/31 06:33:04;;;;;;;2.20;1.20;;;;;;;;;;5000352;28;20026;-76
2023/10/31 06:35:30;;;;;;;1.95;1.25;;;;;;;;;;4999344;28;20040;-74
2023/10/31 06:37:56;;;;;;;1.13;0.77;;;;;;;;;;4978101;28;20034;-74
2023/10/31 06:40:24;;;;;;;1.27;0.93;;;;;;;;;;4990657;28;20101;-74
2023/10/31 06:42:50;;;;;;;1.10;0.90;;;;;;;;;;5005095;28;20073;-74
2023/10/31 06:45:15;;;;;;;1.23;0.65;;;;;;;;;;5006844;28;20039;-74
2023/10/31 06:47:41;;;;;;;1.75;0.77;;;;;;;;;;4992981;28;20034;-75
2023/10/31 06:50:08;;;;;;;0.50;0.50;;;;;;;;;;5009490;28;20025;-74
2023/10/31 06:52:35;;;;;;;2.10;0.80;;;;;;;;;;4981025;28;20375;-77
2023/10/31 06:55:01;;;;;;;7.15;4.35;;;;;;;;;;4991980;28;20052;-73
2023/10/31 06:57:30;;;;;;;1.48;0.73;;;;;;;;;;5005674;28;20030;-77
2023/10/31 06:59:55;;;;;;;0.85;0.50;;;;;;;;;;4991105;28;20128;-75
2023/10/31 07:02:21;;;;;;;0.75;0.57;;;;;;;;;;4997946;28;20463;-73
2023/10/31 07:05:03;;;;;;;2.70;0.75;;;;;;;;;;5009657;28;20025;-78
2023/10/31 07:07:32;;;;;;;;;;;;;;;;;;4983748;28;20029;-76
2023/10/31 07:09:57;;;;;;;0.40;0.40;;;;;;;;;;4993359;28;19917;-79
2023/10/31 07:12:31;;;;;;;0.68;0.68;;;;;;;;;;4976825;28;20104;-75
2023/10/31 07:14:58;;;;;;;0.40;0.40;;;;;;;;;;4973149;28;20278;-74
2023/10/31 07:17:25;;;;;;;0.60;0.50;;;;;;;;;;5008495;28;20033;-76
2023/10/31 07:19:51;;;;;;;0.50;0.40;;;;;;;;;;5012194;28;20057;-75
2023/10/31 07:22:17;;;;;;;1.00;0.68;;;;;;;;;;5006022;28;20029;-75
2023/10/31 07:24:46;;;;;;;1.10;0.50;;;;;;;;;;5001598;28;20086;-76
2023/10/31 07:27:14;;;;;;;5.63;0.80;;;;;;;;;;5018551;28;20135;-76
2023/10/31 07:29:42;;;;;;;4.13;0.40;;;;;;;;;;5025255;28;20154;-74
2023/10/31 07:32:11;;;;;;;1.00;0.60;;;;;;;;;;4999135;28;20500;-76
2023/10/31 07:34:45;;;;;;;0.95;0.40;;;;;;;;;;5004060;28;20449;-76
2023/10/31 07:37:13;;;;;;;1.60;0.70;;;;;;;;;;5009172;28;20776;-75
2023/10/31 07:40:23;;;;;;;0.60;0.60;;;;;;;;;;4996508;28;20034;-76
2023/10/31 07:42:50;;;;;;;0.68;0.40;;;;;;;;;;5027749;28;20473;-78
2023/10/31 07:45:19;;;;;;;0.40;0.40;;;;;;;;;;5008099;28;20052;-77
2023/10/31 07:47:45;;;;;;;0.35;0.35;;;;;;;;;;5008377;28;20400;-76
2023/10/31 07:50:16;;;;;;;0.63;0.45;;;;;;;;;;5010352;28;20039;-78
2023/10/31 07:52:43;;;;;;;;;;;;;;;;;;5008305;28;20455;-76
2023/10/31 07:55:15;;;;;;;3.67;1.20;;;;;;;;;;5015810;28;20468;-76
2023/10/31 07:57:44;;;;;;;1.10;0.93;;;;;;;;;;5010732;28;20065;-78
2023/10/31 08:00:13;;;;;;;1.88;1.02;;;;;;;;;;5006318;28;20099;-79
2023/10/31 08:02:38;;;;;;;2.38;0.60;;;;;;;;;;5001559;28;20116;-74
2023/10/31 08:05:11;;;;;;;1.70;0.60;;;;;;;;;;5025382;28;20108;-78
2023/10/31 08:07:38;;;;;;;1.42;0.80;;;;;;;;;;5025452;28;20030;-76
2023/10/31 08:10:09;;;;;;;0.60;0.35;;;;;;;;;;5024626;28;20033;-78
2023/10/31 08:12:40;;;;;;;0.77;0.40;;;;;;;;;;5021585;28;20040;-84
2023/10/31 08:15:09;;;;;;;0.77;0.65;;;;;;;;;;5022782;28;20410;-79
2023/10/31 08:17:54;;;;;;;0.55;0.35;;;;;;;;;;5025336;28;20041;-76
2023/10/31 08:20:36;;;;;;;;;;;;;;;;;;;;;
2023/10/31 08:23:03;;;;;;;0.95;0.50;;;;;;;;;;4973386;28;20866;-76
2023/10/31 08:25:51;;;;;;;0.45;0.43;;;;;;;;;;4964803;28;20160;-77
2023/10/31 08:28:26;;;;;;;2.38;0.60;;;;;;;;;;4932360;28;20495;-79
2023/10/31 08:30:56;;;;;;;0.63;0.40;;;;;;;;;;4967107;28;20038;-79
2023/10/31 08:33:26;;;;;;;2.40;0.73;;;;;;;;;;4965328;28;20133;-76
2023/10/31 08:35:59;;;;;;;0.55;0.50;;;;;;;;;;4971148;28;20770;-75
2023/10/31 08:38:28;;;;;;;0.65;0.50;;;;;;;;;;4961856;28;20096;-74
2023/10/31 08:40:59;;;;;;;1.05;0.70;;;;;;;;;;4966097;28;20492;-75
2023/10/31 08:43:41;;;;;;;2.97;0.50;;;;;;;;;;4962377;28;20471;-75
2023/10/31 08:46:08;;;;;;;2.33;0.32;;;;;;;;;;4990421;28;21317;-80
2023/10/31 08:48:38;;;;;;;1.38;0.50;;;;;;;;;;4981701;28;20081;-74
2023/10/31 08:51:04;;;;;;;3.08;1.02;;;;;;;;;;4969406;28;21071;-76
2023/10/31 08:53:39;;;;;;;2.03;0.77;;;;;;;;;;4980406;28;20121;-74
2023/10/31 08:56:20;;;;;;;2.60;0.50;;;;;;;;;;4998031;28;20144;-78
2023/10/31 08:58:50;;;;;;;3.25;0.60;;;;;;;;;;4965550;28;20035;-74
2023/10/31 09:01:28;;;;;;;0.47;0.45;;;;;;;;;;5020275;28;20122;-75
2023/10/31 09:03:58;;;;;;;2.85;0.50;;;;;;;;;;5013727;28;20033;-75
2023/10/31 09:06:28;;;;;;;;;;;;;;;;;;5033454;28;20071;-75
2023/10/31 09:09:10;;;;;;;0.55;0.40;;;;;;;;;;5036113;28;19979;-75
2023/10/31 09:11:36;;;;;;;1.33;0.50;;;;;;;;;;5011360;28;20054;-74
2023/10/31 09:14:06;;;;;;;0.70;0.40;;;;;;;;;;5006886;28;20948;-77
2023/10/31 09:16:40;;;;;;;1.35;0.50;;;;;;;;;;5003693;28;20088;-77
2023/10/31 09:19:08;;;;;;;0.45;0.32;;;;;;;;;;4990264;28;20060;-75
2023/10/31 09:21:40;;;;;;;0.70;0.52;;;;;;;;;;4990115;28;20051;-77
2023/10/31 09:24:10;;;;;;;;;;;;;;;;;;4984088;28;20048;-77
2023/10/31 09:26:40;;;;;;;0.60;0.60;;;;;;;;;;5003651;28;19944;-76
2023/10/31 09:29:08;;;;;;;2.28;0.70;;;;;;;;;;5003211;28;20143;-73
2023/10/31 09:31:35;;;;;;;3.13;0.50;;;;;;;;;;4991162;28;20038;-75
2023/10/31 09:34:03;;;;;;;0.50;0.40;;;;;;;;;;5001089;28;20040;-75
2023/10/31 09:36:34;;;;;;;0.52;0.52;;;;;;;;;;5002513;28;20042;-78
2023/10/31 09:39:05;;;;;;;1.25;0.68;;;;;;;;;;4983303;28;20026;-77
2023/10/31 09:41:35;;;;;;;1.20;0.65;;;;;;;;;;5005315;28;20041;-75
2023/10/31 09:44:08;;;;;;;1.08;0.70;;;;;;;;;;4983156;28;20621;-77
2023/10/31 09:46:35;;;;;;;1.30;0.57;;;;;;;;;;5002453;28;20590;-77
2023/10/31 09:49:10;;;;;;;2.30;0.50;;;;;;;;;;5003672;28;20026;-75
2023/10/31 09:51:53;;;;;;;1.48;0.52;;;;;;;;;;4987293;28;20025;-79
2023/10/31 09:54:24;;;;;;;1.65;0.60;;;;;;;;;;4993294;28;20030;-75
2023/10/31 09:57:05;;;;;;;0.65;0.60;;;;;;;;;;5004483;28;20038;-75
2023/10/31 09:59:32;;;;;;;4.03;0.65;;;;;;;;;;4997135;28;20035;-75
2023/10/31 10:02:00;;;;;;;0.40;0.40;;;;;;;;;;5003257;28;20048;-74
2023/10/31 10:04:29;;;;;;;0.95;0.50;;;;;;;;;;5007050;28;20037;-76
2023/10/31 10:07:01;;;;;;;3.38;0.75;;;;;;;;;;4994209;28;20481;-75
2023/10/31 10:09:33;;;;;;;0.50;0.40;;;;;;;;;;5023909;28;20037;-76
2023/10/31 10:12:20;;;;;;;0.88;0.70;;;;;;;;;;4993338;28;20833;-79
2023/10/31 10:14:46;;;;;;;3.92;1.10;;;;;;;;;;5011152;28;20592;-75
2023/10/31 10:17:24;;;;;;;4.70;0.98;;;;;;;;;;5010521;28;20017;-75
2023/10/31 10:20:10;;;;;;;0.68;0.40;;;;;;;;;;4985399;28;20131;-79
2023/10/31 10:22:40;;;;;;;0.93;0.60;;;;;;;;;;5001485;28;20041;-79
2023/10/31 10:25:15;;;;;;;0.40;0.40;;;;;;;;;;4998498;28;20147;-76
2023/10/31 10:27:48;;;;;;;0.77;0.60;;;;;;;;;;4999606;28;20029;-77
2023/10/31 10:30:45;;;;;;;2.63;0.65;;;;;;;;;;5009547;28;20065;-78
2023/10/31 10:33:22;;;;;;;1.00;0.50;;;;;;;;;;5000817;28;20053;-77
2023/10/31 10:35:48;;;;;;;1.63;0.60;;;;;;;;;;4987907;28;20034;-78
2023/10/31 10:38:17;;;;;;;0.60;0.50;;;;;;;;;;5005675;28;20040;-74
2023/10/31 10:40:52;;;;;;;0.88;0.57;;;;;;;;;;4991227;28;20041;-76
2023/10/31 10:43:39;;;;;;;0.57;0.47;;;;;;;;;;4992210;28;20061;-75
2023/10/31 10:46:12;;;;;;;1.05;0.40;;;;;;;;;;5011978;28;20060;-75
2023/10/31 10:49:12;;;;;;;0.68;0.47;;;;;;;;;;5004266;28;20038;-76
2023/10/31 10:51:54;;;;;;;1.83;1.20;;;;;;;;;;4999153;28;20064;-75
2023/10/31 10:54:42;;;;;;;1.08;0.40;;;;;;;;;;5002756;28;20066;-75
2023/10/31 10:57:24;;;;;;;0.40;0.40;;;;;;;;;;5003999;28;20108;-74
2023/10/31 10:59:56;;;;;;;0.77;0.55;;;;;;;;;;4992253;28;20030;-75
2023/10/31 11:02:23;;;;;;;1.60;0.60;;;;;;;;;;5005760;28;20030;-77
2023/10/31 11:05:07;;;;;;;3.92;0.50;;;;;;;;;;5000045;28;20387;-76
2023/10/31 11:07:44;;;;;;;0.63;0.50;;;;;;;;;;4998857;28;20508;-77
2023/10/31 11:10:12;;;;;;;2.40;0.60;;;;;;;;;;5006936;28;20033;-76
2023/10/31 11:12:42;;;;;;;1.13;0.50;;;;;;;;;;4994309;28;20034;-75
2023/10/31 11:15:11;;;;;;;0.50;0.40;;;;;;;;;;5013615;28;20041;-77
2023/10/31 11:17:41;;;;;;;0.60;0.60;;;;;;;;;;4989737;28;20160;-75
2023/10/31 11:20:16;;;;;;;0.82;0.40;;;;;;;;;;5019901;28;20729;-76
2023/10/31 11:22:57;;;;;;;1.00;0.80;;;;;;;;;;5009341;28;20045;-76
2023/10/31 11:25:38;;;;;;;0.93;0.40;;;;;;;;;;5022184;28;20054;-76
2023/10/31 11:28:25;;;;;;;2.03;0.53;;;;;;;;;;5008089;28;20030;-79
2023/10/31 11:30:58;;;;;;;1.30;0.30;;;;;;;;;;5019095;28;20025;-77
2023/10/31 11:33:31;;;;;;;1.60;0.90;;;;;;;;;;5020273;28;20847;-76
2023/10/31 11:36:04;;;;;;;0.95;0.68;;;;;;;;;;5014536;28;20529;-77
2023/10/31 11:38:35;;;;;;;1.75;0.85;;;;;;;;;;5022197;28;20254;-75
2023/10/31 11:41:02;;;;;;;0.98;0.88;;;;;;;;;;5021724;28;20037;-75
2023/10/31 11:43:43;;;;;;;3.28;1.00;;;;;;;;;;5005513;28;20029;-78
2023/10/31 11:46:23;;;;;;;5.28;1.00;;;;;;;;;;5028162;28;20047;-76
2023/10/31 11:48:55;;;;;;;1.63;0.90;;;;;;;;;;5024221;28;20040;-76
2023/10/31 11:51:23;;;;;;;4.38;1.67;;;;;;;;;;5023170;28;20119;-76
2023/10/31 11:53:52;;;;;;;3.50;1.15;;;;;;;;;;5016593;28;20040;-75
2023/10/31 11:56:22;;;;;;;4.70;3.17;;;;;;;;;;5010443;28;20114;-76
2023/10/31 11:59:11;;;;;;;1.58;1.33;;;;;;;;;;5016609;28;20034;-77
2023/10/31 12:01:51;;;;;;;14.75;1.58;;;;;;;;;;5008588;28;20124;-78
2023/10/31 12:04:24;;;;;;;9.55;2.75;;;;;;;;;;4998759;28;20060;-82
2023/10/31 12:07:00;;;;;;;1.08;0.98;;;;;;;;;;4999137;28;20025;-73
2023/10/31 12:09:27;;;;;;;1.80;0.80;;;;;;;;;;5006214;28;20212;-81
2023/10/31 12:11:54;;;;;;;2.85;1.10;;;;;;;;;;5022451;28;20025;-79
2023/10/31 12:14:22;;;;;;;0.60;0.50;;;;;;;;;;4994447;28;20026;-76
2023/10/31 12:16:48;;;;;;;1.02;0.70;;;;;;;;;;5020903;28;20029;-77
2023/10/31 12:19:16;;;;;;;0.57;0.50;;;;;;;;;;5017481;28;20021;-79
2023/10/31 12:21:56;;;;;;;0.70;0.52;;;;;;;;;;5007877;28;20037;-74
2023/10/31 12:24:23;;;;;;;2.60;0.70;;;;;;;;;;5021768;28;20040;-75
2023/10/31 12:26:51;;;;;;;0.60;0.60;;;;;;;;;;5005710;28;20033;-75
2023/10/31 12:29:33;;;;;;;2.05;0.95;;;;;;;;;;5022001;28;20065;-76
2023/10/31 12:32:00;;;;;;;0.85;0.77;;;;;;;;;;5025515;28;20036;-74
2023/10/31 12:34:26;;;;;;;1.63;0.88;;;;;;;;;;5018188;28;20034;-75
2023/10/31 12:36:53;;;;;;;0.55;0.55;;;;;;;;;;5020506;28;20038;-79
2023/10/31 12:39:27;;;;;;;2.00;0.70;;;;;;;;;;5024400;28;20064;-76
2023/10/31 12:41:54;;;;;;;1.98;0.55;;;;;;;;;;5031726;28;20130;-76
2023/10/31 12:44:30;;;;;;;0.73;0.70;;;;;;;;;;5002419;28;20021;-76
2023/10/31 12:46:57;;;;;;;0.73;0.60;;;;;;;;;;5005824;28;20029;-78
2023/10/31 12:49:24;;;;;;;0.85;0.60;;;;;;;;;;5025347;28;20043;-78
2023/10/31 12:52:04;;;;;;;2.53;0.70;;;;;;;;;;5005175;28;20492;-75
2023/10/31 12:57:35;;;;;;;2.45;0.80;;;;;;;;;;5024340;28;20122;-79
2023/10/31 13:00:10;;;;;;;0.75;0.75;;;;;;;;;;5024080;28;20038;-77
2023/10/31 13:02:36;;;;;;;1.35;0.60;;;;;;;;;;5019788;28;20025;-79
2023/10/31 13:05:15;;;;;;;1.10;0.52;;;;;;;;;;5007574;28;20671;-76
2023/10/31 13:08:04;;;;;;;0.60;0.60;;;;;;;;;;5013542;28;20033;-79
2023/10/31 13:10:59;;;;;;;0.70;0.70;;;;;;;;;;5026627;28;20029;-78
2023/10/31 13:13:42;;;;;;;1.15;0.60;;;;;;;;;;5027657;28;20185;-76
2023/10/31 13:16:09;;;;;;;0.50;0.50;;;;;;;;;;5025794;28;20030;-78
2023/10/31 13:18:45;;;;;;;0.60;0.50;;;;;;;;;;5020974;28;20033;-79
2023/10/31 13:21:14;;;;;;;1.30;0.60;;;;;;;;;;5011060;28;20446;-75
2023/10/31 13:23:45;;;;;;;1.90;0.60;;;;;;;;;;4985122;28;20199;-76
2023/10/31 13:26:12;;;;;;;1.20;0.68;;;;;;;;;;4972865;28;20101;-76
2023/10/31 13:28:52;;;;;;;4.65;1.80;;;;;;;;;;4978590;28;20240;-75
2023/10/31 13:31:25;;;;;;;3.75;1.10;;;;;;;;;;4986340;28;20042;-74
2023/10/31 13:33:56;;;;;;;1.35;1.00;;;;;;;;;;4955880;28;20434;-77
2023/10/31 13:36:30;;;;;;;1.48;0.88;;;;;;;;;;4973573;28;20038;-75
2023/10/31 13:39:01;;;;;;;0.70;0.55;;;;;;;;;;4983360;28;20073;-78
2023/10/31 13:41:27;;;;;;;3.10;1.98;;;;;;;;;;4987486;28;20096;-77
2023/10/31 13:43:55;;;;;;;0.75;0.60;;;;;;;;;;4979219;28;20026;-78
2023/10/31 13:46:31;;;;;;;1.08;0.65;;;;;;;;;;4966345;28;20030;-75
2023/10/31 13:48:59;;;;;;;1.35;1.10;;;;;;;;;;4969288;28;20046;-80
2023/10/31 13:51:31;;;;;;;2.17;0.70;;;;;;;;;;4970009;28;20053;-76
2023/10/31 13:53:57;;;;;;;;;;;;;;;;;;4951685;28;20073;-76
2023/10/31 13:56:23;;;;;;;0.95;0.70;;;;;;;;;;4992091;28;19959;-77
2023/10/31 13:58:53;;;;;;;2.60;1.60;;;;;;;;;;5001016;28;20034;-75
2023/10/31 14:01:24;;;;;;;1.10;0.98;;;;;;;;;;5003533;28;20037;-80
2023/10/31 14:03:50;;;;;;;2.33;1.20;;;;;;;;;;4980620;28;20092;-75
2023/10/31 14:06:17;;;;;;;1.10;0.73;;;;;;;;;;4981297;28;20041;-76
2023/10/31 14:08:44;;;;;;;1.15;0.77;;;;;;;;;;5001631;28;20026;-77
2023/10/31 14:11:15;;;;;;;1.05;0.70;;;;;;;;;;4984491;28;20030;-76
2023/10/31 14:13:42;;;;;;;0.80;0.52;;;;;;;;;;4985017;28;20519;-76
2023/10/31 14:16:08;;;;;;;2.28;1.48;;;;;;;;;;4998620;28;20051;-77
2023/10/31 14:18:47;;;;;;;4.53;0.73;;;;;;;;;;4998463;28;20396;-76
2023/10/31 14:21:16;;;;;;;1.38;1.17;;;;;;;;;;5003492;28;20433;-77
2023/10/31 14:23:44;;;;;;;0.85;0.70;;;;;;;;;;5015702;28;20093;-77
2023/10/31 14:26:12;;;;;;;2.33;0.60;;;;;;;;;;5023928;28;20038;-77
2023/10/31 14:28:41;;;;;;;0.68;0.65;;;;;;;;;;5015133;28;20375;-78
2023/10/31 14:31:37;;;;;;;2.88;0.80;;;;;;;;;;4995755;28;20060;-78
2023/10/31 14:34:05;;;;;;;1.45;1.33;;;;;;;;;;4997629;28;20140;-76
2023/10/31 14:36:31;;;;;;;1.95;0.60;;;;;;;;;;5030243;28;20466;-76
2023/10/31 14:38:56;;;;;;;0.73;0.73;;;;;;;;;;5006787;28;20084;-76
2023/10/31 14:41:23;;;;;;;3.47;0.85;;;;;;;;;;5036383;28;20033;-75
2023/10/31 14:43:49;;;;;;;1.30;0.65;;;;;;;;;;5026557;28;20077;-75
2023/10/31 14:46:15;;;;;;;0.80;0.60;;;;;;;;;;5034857;28;20053;-75
2023/10/31 14:48:41;;;;;;;1.25;0.60;;;;;;;;;;5022965;28;20032;-76
2023/10/31 14:51:06;;;;;;;2.33;0.95;;;;;;;;;;5032467;28;20040;-78
2023/10/31 14:53:34;;;;;;;0.80;0.80;;;;;;;;;;5021581;28;20028;-77
2023/10/31 14:56:03;;;;;;;2.15;0.80;;;;;;;;;;5024895;28;20123;-77
2023/10/31 14:58:34;;;;;;;1.02;0.80;;;;;;;;;;5008088;28;20473;-77